Time;durP1;ratioP1;P1;durP2;ratioP2;P2;SDS_P1;SDS_P2;PMS_P1;PMS_P2;Temp;Humidity;BMP_temperature;BMP_pressure;BME280_temperature;BME280_humidity;BME280_pressure;Samples;Min_cycle;Max_cycle;Signal;HPM_P1;HPM_P2
2023/02/02 00:01:18;;;;;;;8.80;3.40;;;4.80;99.90;;;;;;5057627;28;20758;-69
2023/02/02 00:03:45;;;;;;;7.70;2.07;;;4.90;99.90;;;;;;5057120;28;20455;-69
2023/02/02 00:06:14;;;;;;;15.97;3.50;;;4.90;99.90;;;;;;5057025;28;20463;-69
2023/02/02 00:08:41;;;;;;;9.77;3.03;;;4.90;99.90;;;;;;5057175;28;20810;-69
2023/02/02 00:11:08;;;;;;;9.27;2.90;;;4.90;99.90;;;;;;5056634;28;21003;-68
2023/02/02 00:13:35;;;;;;;12.77;3.50;;;5.00;99.90;;;;;;5056951;28;20528;-68
2023/02/02 00:16:35;;;;;;;9.73;3.07;;;5.00;99.90;;;;;;5057624;28;20520;-68
2023/02/02 00:19:04;;;;;;;12.87;3.07;;;5.00;99.90;;;;;;5061565;28;20768;-68
2023/02/02 00:21:32;;;;;;;8.10;2.30;;;5.00;99.90;;;;;;5058635;28;20534;-68
2023/02/02 00:24:00;;;;;;;9.67;3.57;;;5.10;99.90;;;;;;5056820;28;20527;-68
2023/02/02 00:26:27;;;;;;;11.03;3.07;;;5.00;99.90;;;;;;5056540;28;20483;-69
2023/02/02 00:28:54;;;;;;;11.57;3.03;;;5.10;99.90;;;;;;5056468;28;20479;-68
2023/02/02 00:31:21;;;;;;;18.40;3.87;;;5.10;99.90;;;;;;5056857;28;20459;-68
2023/02/02 00:33:49;;;;;;;12.87;3.00;;;5.10;99.90;;;;;;5056243;28;20465;-67
2023/02/02 00:36:17;;;;;;;11.57;2.70;;;5.10;99.90;;;;;;5056067;28;20454;-69
2023/02/02 00:38:46;;;;;;;14.60;3.20;;;5.10;99.90;;;;;;5056636;28;20451;-68
2023/02/02 00:41:13;;;;;;;10.53;3.20;;;5.10;99.90;;;;;;5056004;28;20483;-69
2023/02/02 00:43:39;;;;;;;15.63;3.33;;;5.10;99.90;;;;;;5057260;28;20501;-68
2023/02/02 00:46:09;;;;;;;14.67;2.60;;;5.10;99.90;;;;;;5057195;28;20523;-69
2023/02/02 00:48:36;;;;;;;14.20;3.47;;;5.10;99.90;;;;;;5057286;28;20769;-68
2023/02/02 00:51:02;;;;;;;12.43;2.80;;;5.00;99.90;;;;;;5056507;28;20856;-68
2023/02/02 00:53:30;;;;;;;14.30;3.10;;;5.00;99.90;;;;;;5056378;28;20538;-67
2023/02/02 00:55:58;;;;;;;13.97;3.70;;;4.90;99.90;;;;;;5055443;28;20497;-69
2023/02/02 00:58:25;;;;;;;12.90;3.20;;;4.90;99.90;;;;;;5055513;28;20920;-70
2023/02/02 01:00:52;;;;;;;15.30;3.67;;;4.90;99.90;;;;;;5056280;28;20618;-69
2023/02/02 01:03:19;;;;;;;15.90;2.97;;;4.80;99.90;;;;;;5057044;28;20514;-68
2023/02/02 01:05:46;;;;;;;16.77;3.30;;;4.80;99.90;;;;;;5057787;28;20546;-69
2023/02/02 01:08:13;;;;;;;18.90;3.60;;;4.70;99.90;;;;;;5057508;28;20473;-68
2023/02/02 01:10:40;;;;;;;9.20;2.50;;;4.70;99.90;;;;;;5056266;28;20458;-68
2023/02/02 01:13:08;;;;;;;15.00;3.60;;;4.60;99.90;;;;;;5059242;28;20530;-69
2023/02/02 01:15:35;;;;;;;21.83;3.53;;;4.60;99.90;;;;;;5057039;28;20465;-68
2023/02/02 01:18:02;;;;;;;11.50;3.00;;;4.60;99.90;;;;;;5055492;28;20455;-68
2023/02/02 01:20:30;;;;;;;15.70;5.50;;;4.60;99.90;;;;;;5055621;28;20534;-68
2023/02/02 01:22:57;;;;;;;17.13;3.50;;;4.50;99.90;;;;;;5055782;28;20553;-68
2023/02/02 01:25:24;;;;;;;14.90;3.40;;;4.50;99.90;;;;;;5055627;28;20455;-68
2023/02/02 01:27:51;;;;;;;14.60;3.37;;;4.50;99.90;;;;;;5055870;28;20463;-68
2023/02/02 01:30:19;;;;;;;14.10;3.03;;;4.50;99.90;;;;;;5055769;28;20487;-68
2023/02/02 01:32:46;;;;;;;10.23;2.70;;;4.50;99.90;;;;;;5056196;28;20963;-69
2023/02/02 01:35:13;;;;;;;13.13;3.00;;;4.50;99.90;;;;;;5056055;28;20849;-69
2023/02/02 01:37:40;;;;;;;18.23;3.30;;;4.50;99.90;;;;;;5055159;28;20825;-69
2023/02/02 01:40:08;;;;;;;13.60;2.83;;;4.50;99.90;;;;;;5054587;28;20457;-69
2023/02/02 01:42:35;;;;;;;20.27;3.77;;;4.40;99.90;;;;;;5054964;28;20790;-69
2023/02/02 01:45:21;;;;;;;10.97;2.53;;;4.40;99.90;;;;;;5055624;28;20506;-69
2023/02/02 01:47:52;;;;;;;15.60;3.20;;;4.50;99.90;;;;;;5056690;28;20459;-68
2023/02/02 01:50:23;;;;;;;13.40;3.10;;;4.50;99.90;;;;;;5056289;28;20841;-69
2023/02/02 01:52:53;;;;;;;14.23;2.57;;;4.50;99.90;;;;;;5060433;28;20540;-67
2023/02/02 01:55:23;;;;;;;12.67;2.80;;;4.50;99.90;;;;;;5063188;28;20459;-69
2023/02/02 01:57:53;;;;;;;15.10;3.07;;;4.50;99.90;;;;;;5062118;28;20530;-70
2023/02/02 02:00:24;;;;;;;12.73;2.30;;;4.50;99.90;;;;;;5064540;28;20457;-69
2023/02/02 02:02:55;;;;;;;11.90;2.80;;;4.60;99.90;;;;;;5060596;28;20447;-69
2023/02/02 02:05:28;;;;;;;15.03;3.57;;;4.50;99.90;;;;;;5058745;28;20457;-69
2023/02/02 02:08:02;;;;;;;13.17;3.10;;;4.50;99.90;;;;;;5059128;28;20443;-70
2023/02/02 02:10:28;;;;;;;11.07;2.97;;;4.50;99.90;;;;;;5059303;28;20553;-69
2023/02/02 02:12:55;;;;;;;13.60;2.80;;;4.50;99.90;;;;;;5058809;28;20565;-69
2023/02/02 02:18:30;;;;;;;17.20;3.37;;;4.60;99.90;;;;;;4978590;28;20486;-69
2023/02/02 02:27:59;;;;;;;12.97;2.60;;;4.80;99.90;;;;;;5058448;28;20878;-68
2023/02/02 02:30:48;;;;;;;14.07;3.60;;;4.80;99.90;;;;;;5058772;28;20521;-67
2023/02/02 02:33:22;;;;;;;16.47;3.77;;;4.90;99.90;;;;;;5058542;28;20443;-68
2023/02/02 02:35:58;;;;;;;19.40;2.77;;;4.90;99.90;;;;;;5058686;28;20824;-69
2023/02/02 02:38:34;;;;;;;11.60;3.10;;;5.00;99.90;;;;;;5058310;28;20463;-69
2023/02/02 02:41:08;;;;;;;15.57;2.80;;;5.00;99.90;;;;;;5058144;28;20457;-68
2023/02/02 02:43:40;;;;;;;10.57;2.63;;;5.00;99.90;;;;;;5058091;28;20808;-68
2023/02/02 02:46:08;;;;;;;12.87;3.03;;;5.10;99.90;;;;;;5058695;28;20542;-68
2023/02/02 02:48:36;;;;;;;12.10;3.00;;;5.20;99.90;;;;;;5058909;28;20466;-67
2023/02/02 02:51:07;;;;;;;16.80;2.67;;;5.20;99.90;;;;;;5058762;28;20478;-68
2023/02/02 02:53:36;;;;;;;8.53;2.30;;;5.20;99.90;;;;;;5058886;28;20455;-69
2023/02/02 02:56:11;;;;;;;15.30;2.53;;;5.20;99.90;;;;;;5060199;28;20455;-68
2023/02/02 02:58:49;;;;;;;13.03;3.07;;;5.30;99.90;;;;;;5059406;28;20461;-68
2023/02/02 03:01:26;;;;;;;12.67;2.37;;;5.30;99.90;;;;;;5060175;28;20454;-68
2023/02/02 03:04:06;;;;;;;11.90;2.10;;;5.30;99.90;;;;;;5058467;28;20475;-68
2023/02/02 03:06:41;;;;;;;16.53;3.43;;;5.40;99.90;;;;;;5059071;28;20522;-68
2023/02/02 03:09:10;;;;;;;9.83;2.50;;;5.40;99.90;;;;;;5058024;28;20810;-69
2023/02/02 03:11:37;;;;;;;9.93;2.37;;;5.30;99.90;;;;;;5058133;28;20541;-68
2023/02/02 03:14:08;;;;;;;10.83;2.50;;;5.30;99.90;;;;;;5058388;28;20459;-68
2023/02/02 03:16:35;;;;;;;8.30;2.77;;;5.40;99.90;;;;;;5058263;28;20444;-68
2023/02/02 03:19:04;;;;;;;14.23;2.33;;;5.40;99.90;;;;;;5057602;28;20527;-68
2023/02/02 03:21:31;;;;;;;16.37;2.20;;;5.40;99.90;;;;;;5057819;28;20459;-69
2023/02/02 03:23:58;;;;;;;8.43;1.90;;;5.40;99.90;;;;;;5057828;28;20854;-68
2023/02/02 03:26:25;;;;;;;13.53;3.20;;;5.50;99.90;;;;;;5058003;28;20538;-68
2023/02/02 03:28:55;;;;;;;7.57;1.90;;;5.50;99.90;;;;;;5057463;28;20569;-69
2023/02/02 03:31:22;;;;;;;6.63;2.20;;;5.40;99.90;;;;;;5058271;28;20542;-68
2023/02/02 03:33:49;;;;;;;6.27;1.80;;;5.50;99.90;;;;;;5058038;28;20451;-69
2023/02/02 03:36:17;;;;;;;6.00;1.73;;;5.50;99.90;;;;;;5057451;28;20748;-69
2023/02/02 03:38:44;;;;;;;13.60;1.77;;;5.50;99.90;;;;;;5057233;28;20455;-69
2023/02/02 03:41:10;;;;;;;4.40;2.23;;;5.40;99.90;;;;;;5057200;28;20541;-69
2023/02/02 03:43:37;;;;;;;9.57;1.90;;;5.40;99.90;;;;;;5057758;28;20478;-69
2023/02/02 03:46:06;;;;;;;11.20;2.13;;;5.40;99.90;;;;;;5057625;28;20465;-69
2023/02/02 03:48:36;;;;;;;4.60;1.93;;;5.30;99.90;;;;;;5057366;28;20454;-68
2023/02/02 03:51:06;;;;;;;6.87;1.70;;;5.30;99.90;;;;;;5057296;28;20478;-68
2023/02/02 03:53:35;;;;;;;6.77;1.67;;;5.30;99.90;;;;;;5056917;28;20455;-68
2023/02/02 03:56:02;;;;;;;4.37;1.47;;;5.30;99.90;;;;;;5057013;28;20546;-69
2023/02/02 03:58:29;;;;;;;6.47;2.00;;;5.30;99.90;;;;;;5057071;28;20465;-68
2023/02/02 04:01:02;;;;;;;10.27;2.33;;;5.30;99.90;;;;;;5058125;28;20458;-68
2023/02/02 04:03:28;;;;;;;6.73;2.57;;;5.30;99.90;;;;;;5058524;28;20449;-69
2023/02/02 04:05:55;;;;;;;6.17;2.07;;;5.30;99.90;;;;;;5056835;28;20451;-68
2023/02/02 04:08:22;;;;;;;7.90;1.70;;;5.30;99.90;;;;;;5057401;28;20546;-69
2023/02/02 04:10:50;;;;;;;11.30;2.00;;;5.30;99.90;;;;;;5056739;28;20479;-69
2023/02/02 04:13:17;;;;;;;9.60;2.10;;;5.30;99.90;;;;;;5064983;28;20490;-68
2023/02/02 04:15:44;;;;;;;6.97;2.30;;;5.30;99.90;;;;;;5058061;28;20473;-69
2023/02/02 04:18:11;;;;;;;4.60;2.10;;;5.40;99.90;;;;;;5058326;28;20463;-67
2023/02/02 04:20:38;;;;;;;7.97;2.27;;;5.40;99.90;;;;;;5057367;28;20542;-69
2023/02/02 04:23:05;;;;;;;6.10;2.07;;;5.40;99.90;;;;;;5057070;28;20554;-68
2023/02/02 04:25:32;;;;;;;8.83;2.37;;;5.40;99.90;;;;;;5056989;28;20455;-68
2023/02/02 04:28:00;;;;;;;8.50;1.60;;;5.40;99.90;;;;;;5057512;28;20936;-67
2023/02/02 04:30:27;;;;;;;6.83;1.73;;;5.40;99.90;;;;;;5057788;28;21038;-68
2023/02/02 04:32:55;;;;;;;6.47;2.07;;;5.40;99.90;;;;;;5058241;28;20955;-68
2023/02/02 04:35:21;;;;;;;8.60;2.37;;;5.40;99.90;;;;;;5058091;28;20455;-69
2023/02/02 04:37:48;;;;;;;7.57;2.13;;;5.40;99.90;;;;;;5058882;28;20462;-68
2023/02/02 04:40:15;;;;;;;9.47;2.33;;;5.50;99.90;;;;;;5057541;28;20908;-68
2023/02/02 04:42:44;;;;;;;7.60;1.80;;;5.50;99.90;;;;;;5057031;28;20853;-69
2023/02/02 04:45:12;;;;;;;7.23;1.90;;;5.50;99.90;;;;;;5056693;28;20448;-68
2023/02/02 04:47:39;;;;;;;4.90;2.03;;;5.50;99.90;;;;;;5056835;28;20514;-68
2023/02/02 04:50:07;;;;;;;6.53;2.07;;;5.50;99.90;;;;;;5056176;28;20821;-67
2023/02/02 04:52:34;;;;;;;8.23;2.40;;;5.50;99.90;;;;;;5056195;28;20562;-68
2023/02/02 04:55:01;;;;;;;8.20;1.70;;;5.60;99.90;;;;;;5056568;28;20546;-68
2023/02/02 04:57:28;;;;;;;4.90;1.60;;;5.60;99.90;;;;;;5057896;28;20455;-68
2023/02/02 04:59:55;;;;;;;6.13;1.70;;;5.60;99.90;;;;;;5055904;28;20541;-68
2023/02/02 05:02:23;;;;;;;10.50;1.70;;;5.60;99.90;;;;;;5055992;28;20455;-68
2023/02/02 05:04:50;;;;;;;5.50;1.63;;;5.60;99.90;;;;;;5055421;28;20498;-67
2023/02/02 05:07:16;;;;;;;8.40;1.87;;;5.60;99.90;;;;;;5055693;28;20455;-69
2023/02/02 05:09:43;;;;;;;10.17;2.13;;;5.70;99.90;;;;;;5055695;28;20584;-68
2023/02/02 05:12:10;;;;;;;7.20;1.57;;;5.60;99.90;;;;;;5055279;28;20765;-68
2023/02/02 05:14:37;;;;;;;7.93;2.00;;;5.60;99.90;;;;;;5055250;28;20509;-67
2023/02/02 05:17:04;;;;;;;6.80;3.03;;;5.50;99.90;;;;;;5055697;28;20546;-68
2023/02/02 05:19:32;;;;;;;10.47;2.13;;;5.50;99.90;;;;;;5055406;28;20465;-68
2023/02/02 05:21:59;;;;;;;7.37;2.13;;;5.50;99.90;;;;;;5055639;28;20547;-68
2023/02/02 05:24:26;;;;;;;5.10;1.60;;;5.50;99.90;;;;;;5055766;28;20922;-67
2023/02/02 05:26:57;;;;;;;17.00;2.57;;;5.40;99.90;;;;;;5055313;28;20491;-68
2023/02/02 05:29:24;;;;;;;5.57;2.17;;;5.50;99.90;;;;;;5056256;28;20443;-69
2023/02/02 05:31:51;;;;;;;5.40;1.63;;;5.50;99.90;;;;;;5056407;28;20494;-67
2023/02/02 05:34:18;;;;;;;14.13;2.13;;;5.50;99.90;;;;;;5056651;28;20481;-67
2023/02/02 05:36:46;;;;;;;12.47;1.90;;;5.40;99.90;;;;;;5055798;28;20459;-67
2023/02/02 05:39:13;;;;;;;16.97;1.97;;;5.40;99.90;;;;;;5055606;28;20455;-67
2023/02/02 05:41:40;;;;;;;6.60;1.57;;;5.40;99.90;;;;;;5055128;28;20848;-68
2023/02/02 05:44:08;;;;;;;9.00;1.90;;;5.40;99.90;;;;;;5055825;28;20570;-69
2023/02/02 05:46:35;;;;;;;6.80;2.10;;;5.50;99.90;;;;;;5056338;28;20455;-68
2023/02/02 05:49:03;;;;;;;5.90;2.17;;;5.50;99.90;;;;;;5056062;28;20650;-68
2023/02/02 05:51:34;;;;;;;8.03;1.90;;;5.50;99.90;;;;;;5056038;28;21108;-68
2023/02/02 05:54:02;;;;;;;8.03;2.00;;;5.50;99.90;;;;;;5055826;28;20454;-68
2023/02/02 05:56:29;;;;;;;8.50;2.20;;;5.50;99.90;;;;;;5055348;28;20465;-68
2023/02/02 05:58:56;;;;;;;5.43;1.83;;;5.50;99.90;;;;;;5056316;28;20755;-68
2023/02/02 06:01:22;;;;;;;4.80;1.60;;;5.50;99.90;;;;;;5055728;28;20928;-68
2023/02/02 06:03:49;;;;;;;7.00;2.80;;;5.50;99.90;;;;;;5055101;28;20458;-71
2023/02/02 06:06:16;;;;;;;9.70;2.47;;;5.50;99.90;;;;;;5055803;28;20860;-68
2023/02/02 06:08:43;;;;;;;9.33;1.93;;;5.50;99.90;;;;;;5054968;28;20538;-68
2023/02/02 06:11:13;;;;;;;13.23;1.77;;;5.50;99.90;;;;;;5056097;28;20479;-67
2023/02/02 06:13:40;;;;;;;11.73;2.50;;;5.50;99.90;;;;;;5055426;28;20550;-69
2023/02/02 06:16:07;;;;;;;6.17;2.20;;;5.50;99.90;;;;;;5054377;28;21011;-68
2023/02/02 06:18:35;;;;;;;13.50;2.63;;;5.50;99.90;;;;;;5055606;28;20455;-68
2023/02/02 06:21:04;;;;;;;8.53;2.97;;;5.50;99.90;;;;;;5055409;28;20451;-69
2023/02/02 06:23:33;;;;;;;16.03;2.70;;;5.50;99.90;;;;;;5055646;28;20470;-68
2023/02/02 06:26:02;;;;;;;5.70;1.90;;;5.50;99.90;;;;;;5056423;28;20466;-68
2023/02/02 06:28:30;;;;;;;10.00;2.40;;;5.40;99.90;;;;;;5055574;28;20459;-67
2023/02/02 06:31:03;;;;;;;6.37;2.00;;;5.50;99.90;;;;;;5055169;28;20485;-68
2023/02/02 06:33:30;;;;;;;9.40;2.60;;;5.50;99.90;;;;;;5055636;28;20778;-69
2023/02/02 06:35:59;;;;;;;12.33;2.33;;;5.50;99.90;;;;;;5055418;28;20537;-68
2023/02/02 06:38:26;;;;;;;9.50;2.10;;;5.50;99.90;;;;;;5055175;28;20491;-68
2023/02/02 06:40:53;;;;;;;10.50;2.80;;;5.50;99.90;;;;;;5060337;28;20745;-68
2023/02/02 06:43:20;;;;;;;4.27;1.93;;;5.50;99.90;;;;;;5059124;28;20478;-70
2023/02/02 06:45:48;;;;;;;5.90;2.00;;;5.50;99.90;;;;;;5059747;28;20949;-70
2023/02/02 06:48:15;;;;;;;9.60;2.37;;;5.50;99.90;;;;;;5060485;28;20891;-67
2023/02/02 06:50:41;;;;;;;9.27;1.93;;;5.50;99.90;;;;;;5059971;28;20514;-67
2023/02/02 06:53:08;;;;;;;3.80;1.60;;;5.50;99.90;;;;;;5060106;28;20520;-68
2023/02/02 06:55:35;;;;;;;10.83;2.33;;;5.50;99.90;;;;;;5060426;28;20541;-68
2023/02/02 06:58:02;;;;;;;10.60;2.57;;;5.50;99.90;;;;;;5059748;28;20661;-68
2023/02/02 07:00:30;;;;;;;6.13;2.07;;;5.50;99.90;;;;;;5060622;28;20542;-70
2023/02/02 07:02:59;;;;;;;5.10;1.77;;;5.50;99.90;;;;;;5059406;28;20469;-69
2023/02/02 07:05:28;;;;;;;8.10;2.17;;;5.50;99.90;;;;;;5059515;28;20489;-68
2023/02/02 07:07:55;;;;;;;11.10;2.50;;;5.50;99.90;;;;;;5060098;28;20451;-67
2023/02/02 07:10:22;;;;;;;10.90;1.70;;;5.40;99.90;;;;;;5059382;28;20570;-69
2023/02/02 07:12:49;;;;;;;7.20;1.93;;;5.40;99.90;;;;;;5060036;28;20465;-69
2023/02/02 07:15:16;;;;;;;9.03;2.27;;;5.40;99.90;;;;;;5059803;28;20998;-69
2023/02/02 07:17:43;;;;;;;10.50;1.90;;;5.40;99.90;;;;;;5059477;28;20545;-67
2023/02/02 07:20:12;;;;;;;8.30;1.77;;;5.40;99.90;;;;;;5059383;28;20487;-68
2023/02/02 07:22:39;;;;;;;11.23;2.17;;;5.40;99.90;;;;;;5058633;28;20966;-67
2023/02/02 07:25:07;;;;;;;9.60;2.60;;;5.40;99.90;;;;;;5077638;28;20458;-67
2023/02/02 07:27:34;;;;;;;11.17;2.27;;;5.50;99.90;;;;;;5072638;28;20469;-67
2023/02/02 07:30:01;;;;;;;7.20;1.93;;;5.50;99.90;;;;;;5058900;28;20461;-67
2023/02/02 07:32:28;;;;;;;10.73;1.73;;;5.50;99.90;;;;;;5057824;28;20569;-66
2023/02/02 07:34:54;;;;;;;6.00;1.93;;;5.50;99.90;;;;;;5058278;28;20455;-67
2023/02/02 07:37:23;;;;;;;12.17;2.13;;;5.50;99.90;;;;;;5058577;28;20550;-68
2023/02/02 07:39:50;;;;;;;13.87;1.80;;;5.50;99.90;;;;;;5058367;28;20919;-68
2023/02/02 07:42:17;;;;;;;10.30;2.00;;;5.40;99.90;;;;;;5058270;28;20819;-67
2023/02/02 07:44:44;;;;;;;7.43;2.60;;;5.40;99.90;;;;;;5058267;28;20759;-68
2023/02/02 07:47:10;;;;;;;7.63;1.80;;;5.40;99.90;;;;;;5059329;28;20458;-68
2023/02/02 07:49:37;;;;;;;9.37;1.87;;;5.30;99.90;;;;;;5058921;28;20489;-68
2023/02/02 07:52:04;;;;;;;6.37;2.10;;;5.40;99.90;;;;;;5058341;28;20867;-67
2023/02/02 07:54:33;;;;;;;10.70;3.57;;;5.30;99.90;;;;;;5058438;28;20605;-68
2023/02/02 07:57:01;;;;;;;9.47;2.10;;;5.30;99.90;;;;;;5058322;28;20455;-67
2023/02/02 07:59:27;;;;;;;10.67;2.10;;;5.40;99.90;;;;;;5057807;28;20471;-68
2023/02/02 08:01:54;;;;;;;5.17;2.17;;;5.30;99.90;;;;;;5058381;28;20493;-68
2023/02/02 08:04:21;;;;;;;11.40;1.90;;;5.30;99.90;;;;;;5058802;28;20498;-67
2023/02/02 08:06:48;;;;;;;10.00;2.10;;;5.30;99.90;;;;;;5059851;28;20928;-67
2023/02/02 08:09:15;;;;;;;8.60;2.53;;;5.30;99.90;;;;;;5059150;28;20451;-68
2023/02/02 08:11:43;;;;;;;14.67;3.80;;;5.30;99.90;;;;;;5059997;28;20537;-69
2023/02/02 08:14:13;;;;;;;5.90;2.47;;;5.40;99.90;;;;;;5059017;28;20938;-68
2023/02/02 08:16:40;;;;;;;13.40;2.23;;;5.40;99.90;;;;;;5060304;28;20463;-68
2023/02/02 08:19:06;;;;;;;4.80;2.00;;;5.40;99.90;;;;;;5060824;28;20481;-69
2023/02/02 08:21:34;;;;;;;11.03;1.80;;;5.40;99.90;;;;;;5059903;28;20542;-67
2023/02/02 08:24:01;;;;;;;5.80;1.93;;;5.40;99.90;;;;;;5058635;28;20495;-68
2023/02/02 08:26:30;;;;;;;17.23;3.17;;;5.50;99.90;;;;;;5058993;28;20561;-68
2023/02/02 08:29:00;;;;;;;7.67;3.07;;;5.50;99.90;;;;;;5059109;28;20483;-69
2023/02/02 08:31:29;;;;;;;5.53;2.43;;;5.50;99.90;;;;;;5057923;28;20522;-68
2023/02/02 08:33:57;;;;;;;12.83;2.90;;;5.50;99.90;;;;;;5058672;28;20466;-68
2023/02/02 08:36:26;;;;;;;10.13;2.40;;;5.50;99.90;;;;;;5059331;28;20466;-69
2023/02/02 08:38:53;;;;;;;7.83;2.00;;;5.50;99.90;;;;;;5059735;28;20550;-67
2023/02/02 08:41:22;;;;;;;7.80;2.60;;;5.60;99.90;;;;;;5059561;28;20646;-67
2023/02/02 08:43:49;;;;;;;8.87;2.50;;;5.60;99.90;;;;;;5057837;28;20889;-67
2023/02/02 08:46:19;;;;;;;7.30;2.43;;;5.60;99.90;;;;;;5057505;28;20455;-67
2023/02/02 08:48:47;;;;;;;13.00;2.40;;;5.50;99.90;;;;;;5058637;28;20459;-68
2023/02/02 08:51:16;;;;;;;18.73;2.87;;;5.50;99.90;;;;;;5058461;28;20482;-68
2023/02/02 08:53:43;;;;;;;21.13;2.47;;;5.60;99.90;;;;;;5057663;28;20493;-66
2023/02/02 08:56:12;;;;;;;10.17;3.87;;;5.60;99.90;;;;;;5057536;28;20853;-68
2023/02/02 08:58:39;;;;;;;10.23;2.70;;;5.60;99.90;;;;;;5059464;28;20494;-69
2023/02/02 09:01:07;;;;;;;8.80;1.87;;;5.70;99.90;;;;;;5058447;28;20452;-68
2023/02/02 09:03:38;;;;;;;3.23;1.73;;;5.70;99.90;;;;;;5058631;28;20543;-68
2023/02/02 09:06:07;;;;;;;8.30;2.17;;;5.80;99.90;;;;;;5058812;28;20439;-66
2023/02/02 09:08:34;;;;;;;10.97;1.87;;;5.90;99.90;;;;;;5059935;28;20559;-69
2023/02/02 09:11:06;;;;;;;10.77;2.03;;;6.00;99.90;;;;;;5058691;28;20963;-68
2023/02/02 09:13:33;;;;;;;7.20;1.87;;;6.00;99.90;;;;;;5057713;28;20485;-67
2023/02/02 09:16:00;;;;;;;9.93;1.90;;;6.10;99.90;;;;;;5057092;28;20455;-67
2023/02/02 09:18:28;;;;;;;6.93;2.63;;;6.10;99.90;;;;;;5058153;28;20795;-67
2023/02/02 09:21:00;;;;;;;8.17;2.13;;;6.10;99.90;;;;;;5058627;28;20479;-68
2023/02/02 09:23:29;;;;;;;9.00;1.70;;;6.10;99.90;;;;;;5058972;28;20502;-68
2023/02/02 09:25:56;;;;;;;9.90;2.10;;;6.10;99.90;;;;;;5058308;28;20529;-68
2023/02/02 09:28:23;;;;;;;7.63;2.23;;;6.10;99.90;;;;;;5057503;28;20451;-68
2023/02/02 09:30:50;;;;;;;7.47;1.77;;;6.00;99.90;;;;;;5056388;28;20550;-68
2023/02/02 09:33:17;;;;;;;10.43;2.33;;;6.10;99.90;;;;;;5055965;28;20459;-67
2023/02/02 09:35:43;;;;;;;11.00;1.90;;;6.20;99.90;;;;;;5055700;28;20593;-68
2023/02/02 09:38:12;;;;;;;8.67;2.30;;;6.30;99.90;;;;;;5056166;28;20592;-68
2023/02/02 09:40:41;;;;;;;8.33;1.53;;;6.30;99.90;;;;;;5057607;28;20527;-68
2023/02/02 09:43:24;;;;;;;10.20;1.93;;;6.30;99.90;;;;;;5055729;28;20475;-68
2023/02/02 09:46:00;;;;;;;4.50;1.80;;;6.30;99.90;;;;;;5056902;28;20448;-69
2023/02/02 09:48:35;;;;;;;5.07;1.90;;;6.30;99.90;;;;;;5056152;28;20846;-68
2023/02/02 09:51:06;;;;;;;6.77;1.87;;;6.30;99.90;;;;;;5056053;28;20460;-68
2023/02/02 09:53:46;;;;;;;7.93;1.90;;;6.40;99.90;;;;;;5057005;28;20440;-68
2023/02/02 09:56:23;;;;;;;17.00;2.10;;;6.40;99.90;;;;;;5056779;28;20439;-68
2023/02/02 09:58:54;;;;;;;4.70;1.23;;;6.40;99.90;;;;;;5056943;28;20541;-67
2023/02/02 10:01:24;;;;;;;6.83;2.03;;;6.50;99.90;;;;;;5056033;28;20486;-69
2023/02/02 10:04:00;;;;;;;11.83;2.00;;;6.50;99.90;;;;;;5057922;28;20772;-67
2023/02/02 10:06:34;;;;;;;13.00;1.83;;;6.50;99.90;;;;;;5057275;28;20477;-67
2023/02/02 10:09:16;;;;;;;7.67;2.60;;;6.50;99.90;;;;;;5057762;28;20461;-68
2023/02/02 10:11:49;;;;;;;9.90;2.00;;;6.50;99.90;;;;;;5055821;28;20471;-67
2023/02/02 10:14:25;;;;;;;4.10;1.67;;;6.50;99.90;;;;;;5060349;28;20509;-67
2023/02/02 10:16:55;;;;;;;9.73;1.57;;;6.40;99.90;;;;;;5061605;28;20492;-68
2023/02/02 10:19:27;;;;;;;8.93;3.10;;;6.50;99.90;;;;;;5059683;28;20928;-69
2023/02/02 10:22:03;;;;;;;8.77;1.80;;;6.50;99.90;;;;;;5059558;28;21033;-68
2023/02/02 10:24:34;;;;;;;4.27;2.07;;;6.50;99.90;;;;;;5059661;28;20444;-67
2023/02/02 10:27:04;;;;;;;6.67;1.53;;;6.60;99.90;;;;;;5062171;28;20439;-68
2023/02/02 10:29:39;;;;;;;5.07;1.70;;;6.60;99.90;;;;;;5062246;28;20443;-69
2023/02/02 10:32:21;;;;;;;3.87;1.63;;;6.60;99.90;;;;;;5062434;28;20505;-68
2023/02/02 10:35:00;;;;;;;8.10;1.67;;;6.60;99.90;;;;;;5062037;28;20504;-67
2023/02/02 10:37:33;;;;;;;5.00;1.53;;;6.60;99.90;;;;;;5058303;28;20449;-68
2023/02/02 10:40:17;;;;;;;6.00;1.43;;;6.60;99.90;;;;;;5058572;28;20443;-67
2023/02/02 10:45:45;;;;;;;8.63;1.67;;;6.70;99.90;;;;;;5043744;28;20537;-67
2023/02/02 10:48:15;;;;;;;4.37;1.40;;;6.90;99.90;;;;;;5059844;28;20550;-69
2023/02/02 10:50:45;;;;;;;3.70;1.10;;;7.00;99.90;;;;;;5059474;28;20455;-68
2023/02/02 10:53:14;;;;;;;3.20;1.50;;;7.10;99.90;;;;;;5058884;28;20760;-67
2023/02/02 10:55:47;;;;;;;6.47;2.27;;;7.10;99.90;;;;;;5058227;28;20501;-68
2023/02/02 10:58:23;;;;;;;2.93;1.63;;;7.20;99.90;;;;;;5059387;28;20465;-68
2023/02/02 11:00:52;;;;;;;6.00;1.47;;;7.20;99.90;;;;;;5061066;28;20947;-67
2023/02/02 11:03:22;;;;;;;6.70;1.70;;;7.10;99.90;;;;;;5061169;28;20542;-68
2023/02/02 11:08:33;;;;;;;9.10;3.03;;;7.10;99.90;;;;;;5036116;28;20537;-68
2023/02/02 11:11:11;;;;;;;5.60;1.67;;;7.20;99.90;;;;;;5081107;28;20974;-67
2023/02/02 11:13:43;;;;;;;6.43;1.77;;;7.20;99.90;;;;;;5078500;28;20675;-68
2023/02/02 11:16:26;;;;;;;6.30;1.40;;;7.20;99.90;;;;;;5079572;28;20526;-68
2023/02/02 11:18:53;;;;;;;4.10;1.23;;;7.30;99.90;;;;;;5078501;28;20442;-68
2023/02/02 11:21:24;;;;;;;6.97;1.60;;;7.40;99.90;;;;;;5077945;28;20902;-67
2023/02/02 11:23:56;;;;;;;4.77;1.50;;;7.40;99.90;;;;;;5077754;28;20781;-68
2023/02/02 11:26:25;;;;;;;3.63;1.50;;;7.50;99.90;;;;;;5058097;28;20529;-67
2023/02/02 11:28:56;;;;;;;8.60;1.80;;;7.50;99.90;;;;;;5057974;28;20487;-67
2023/02/02 11:31:36;;;;;;;2.90;1.23;;;7.60;99.90;;;;;;5057699;28;20450;-67
2023/02/02 11:34:16;;;;;;;4.23;1.83;;;7.70;99.90;;;;;;5058346;28;20463;-68
2023/02/02 11:37:00;;;;;;;9.07;1.43;;;7.80;99.90;;;;;;5060562;28;20439;-68
2023/02/02 11:39:27;;;;;;;5.50;1.77;;;7.70;99.90;;;;;;5058957;28;20791;-68
2023/02/02 11:42:06;;;;;;;2.43;1.33;;;7.70;99.90;;;;;;5060309;28;20461;-67
2023/02/02 11:44:34;;;;;;;4.30;1.67;;;7.80;99.90;;;;;;5060098;28;20482;-67
2023/02/02 11:47:03;;;;;;;8.93;1.63;;;7.90;99.90;;;;;;5060235;28;20873;-66
2023/02/02 11:49:37;;;;;;;3.10;1.37;;;7.90;99.90;;;;;;5060632;28;20521;-68
2023/02/02 11:52:06;;;;;;;4.87;1.37;;;7.80;99.90;;;;;;5060099;28;20522;-68
2023/02/02 11:54:36;;;;;;;5.20;1.87;;;7.90;99.90;;;;;;5059929;28;20546;-67
2023/02/02 11:57:07;;;;;;;5.93;1.60;;;7.90;99.90;;;;;;5059238;28;20545;-69
2023/02/02 11:59:37;;;;;;;8.40;2.47;;;7.90;99.90;;;;;;5058334;28;20458;-68
2023/02/02 12:02:24;;;;;;;4.07;1.50;;;7.80;99.90;;;;;;5059884;28;20534;-68
2023/02/02 12:04:52;;;;;;;8.87;1.70;;;7.70;99.90;;;;;;5060758;28;20451;-68
2023/02/02 12:07:25;;;;;;;4.73;1.47;;;7.70;99.90;;;;;;5060268;28;20826;-67
2023/02/02 12:09:53;;;;;;;8.27;1.80;;;7.60;99.90;;;;;;5060810;28;20851;-68
2023/02/02 12:12:38;;;;;;;9.40;1.30;;;7.50;99.90;;;;;;5060106;28;20518;-68
2023/02/02 12:15:20;;;;;;;2.13;1.17;;;7.30;99.90;;;;;;5060125;28;20530;-68
2023/02/02 12:17:48;;;;;;;7.77;1.77;;;7.10;99.90;;;;;;5057172;28;20478;-68
2023/02/02 12:20:26;;;;;;;9.23;2.43;;;7.00;99.90;;;;;;5056884;28;20882;-68
2023/02/02 12:23:06;;;;;;;6.60;1.37;;;6.90;99.90;;;;;;5057595;28;20445;-69
2023/02/02 12:25:46;;;;;;;5.60;1.20;;;6.80;99.90;;;;;;5057204;28;20931;-69
2023/02/02 12:28:28;;;;;;;3.80;1.70;;;6.60;99.90;;;;;;5056928;28;20529;-69
2023/02/02 12:31:02;;;;;;;5.93;1.80;;;6.50;99.90;;;;;;5057247;28;20453;-68
2023/02/02 12:33:37;;;;;;;8.00;1.50;;;6.40;99.90;;;;;;5055964;28;20471;-68
2023/02/02 12:36:21;;;;;;;9.43;1.50;;;6.30;99.90;;;;;;5055646;28;20918;-67
2023/02/02 12:39:17;;;;;;;5.37;1.30;;;6.30;99.90;;;;;;5056161;28;20479;-69
2023/02/02 12:41:59;;;;;;;5.80;1.80;;;6.50;99.90;;;;;;5055996;28;20865;-68
2023/02/02 12:44:39;;;;;;;5.60;1.50;;;7.00;99.90;;;;;;5055505;28;20497;-68
2023/02/02 12:47:18;;;;;;;4.60;1.50;;;8.30;99.90;;;;;;5056718;28;20545;-69
2023/02/02 12:50:02;;;;;;;5.53;1.93;;;9.90;99.90;;;;;;5056148;28;20790;-68
2023/02/02 12:52:44;;;;;;;6.37;1.50;;;11.00;99.90;;;;;;5055479;28;20539;-67
2023/02/02 12:55:22;;;;;;;7.40;1.60;;;11.60;99.90;;;;;;5056932;28;20477;-69
2023/02/02 12:58:03;;;;;;;4.33;1.40;;;12.40;99.90;;;;;;5057343;28;20453;-69
2023/02/02 13:00:45;;;;;;;2.53;1.30;;;13.20;99.90;;;;;;5055955;28;20439;-67
2023/02/02 13:03:27;;;;;;;5.90;1.47;;;13.70;99.90;;;;;;5056372;28;20435;-68
2023/02/02 13:06:26;;;;;;;2.67;1.20;;;14.20;99.90;;;;;;5055764;28;20439;-67
2023/02/02 13:08:58;;;;;;;3.20;1.13;;;14.40;97.20;;;;;;5055959;28;20561;-69
2023/02/02 13:11:36;;;;;;;2.40;1.17;;;14.60;96.00;;;;;;5055865;28;20535;-68
2023/02/02 13:14:09;;;;;;;2.90;1.30;;;14.80;93.10;;;;;;5055780;28;20470;-68
2023/02/02 13:16:43;;;;;;;3.30;1.33;;;14.80;91.80;;;;;;5055231;28;20453;-68
2023/02/02 13:19:14;;;;;;;2.30;1.13;;;14.10;92.80;;;;;;5055711;28;20537;-68
2023/02/02 13:21:43;;;;;;;6.43;1.40;;;14.00;93.20;;;;;;5055334;28;20526;-68
2023/02/02 13:24:15;;;;;;;4.83;1.50;;;14.10;92.50;;;;;;5055115;28;20542;-68